Time;durP1;ratioP1;P1;durP2;ratioP2;P2;SDS_P1;SDS_P2;PMS_P1;PMS_P2;Temp;Humidity;BMP_temperature;BMP_pressure;BME280_temperature;BME280_humidity;BME280_pressure;Samples;Min_cycle;Max_cycle;Signal;HPM_P1;HPM_P2
2023/03/03 00:00:10;;;;;;;39.80;21.50;;;;;;;5.89;100.00;98482.56;4992895;28;20203;-63
2023/03/03 00:02:36;;;;;;;39.50;20.70;;;;;;;5.76;100.00;98480.66;4992669;28;20669;-63
2023/03/03 00:05:01;;;;;;;40.47;19.17;;;;;;;5.70;100.00;98473.22;4992347;28;20187;-64
2023/03/03 00:07:26;;;;;;;44.28;22.27;;;;;;;5.84;100.00;98479.38;4971395;28;20272;-64
2023/03/03 00:09:52;;;;;;;43.25;23.10;;;;;;;5.61;100.00;98436.03;4971053;28;20344;-64
2023/03/03 00:12:26;;;;;;;41.08;22.05;;;;;;;5.69;100.00;98423.63;4971316;28;20193;-64
2023/03/03 00:14:52;;;;;;;37.63;20.85;;;;;;;5.41;100.00;98366.84;4971085;28;20180;-63
2023/03/03 00:17:23;;;;;;;39.50;19.50;;;;;;;5.88;100.00;98444.13;4971154;28;20203;-64
2023/03/03 00:19:50;;;;;;;37.70;19.83;;;;;;;5.93;100.00;98447.28;4971532;28;20192;-63
2023/03/03 00:22:22;;;;;;;35.22;19.17;;;;;;;6.00;100.00;98452.06;4974996;28;20188;-63
2023/03/03 00:24:48;;;;;;;39.10;21.70;;;;;;;5.80;100.00;98406.00;4974660;28;20168;-64
2023/03/03 00:27:37;;;;;;;37.72;18.17;;;;;;;5.98;100.00;98435.91;4974325;28;20563;-63
2023/03/03 00:30:03;;;;;;;39.92;21.52;;;;;;;5.99;100.00;98447.81;4974575;28;20176;-63
2023/03/03 00:32:40;;;;;;;39.65;20.38;;;;;;;5.59;100.00;98376.22;4974764;28;20659;-64
2023/03/03 00:35:28;;;;;;;44.63;20.55;;;;;;;5.67;100.00;98383.53;4936262;29;20220;-64
2023/03/03 00:38:00;;;;;;;35.17;20.20;;;;;;;5.97;100.00;98430.84;4941576;29;20239;-63
2023/03/03 00:40:36;;;;;;;39.80;21.15;;;;;;;5.75;100.00;98372.00;4954995;29;20232;-64
2023/03/03 00:43:31;;;;;;;35.17;20.25;;;;;;;5.72;100.00;98381.59;4955468;28;20185;-64
2023/03/03 00:45:57;;;;;;;37.92;19.77;;;;;;;5.75;100.00;98418.19;4916233;29;20202;-63
2023/03/03 00:48:34;;;;;;;40.10;21.05;;;;;;;5.84;100.00;98416.94;4916954;29;20254;-64
2023/03/03 00:51:05;;;;;;;34.15;20.02;;;;;;;5.80;100.00;98421.41;4916816;29;20277;-63
2023/03/03 00:53:30;;;;;;;36.72;19.92;;;;;;;5.80;100.00;98400.03;4916904;29;20226;-63
2023/03/03 00:55:56;;;;;;;38.95;20.13;;;;;;;5.57;100.00;98354.09;4916276;29;20666;-63
2023/03/03 00:58:23;;;;;;;33.28;19.65;;;;;;;5.71;100.00;98401.28;4916417;29;20182;-63
2023/03/03 01:00:51;;;;;;;39.38;20.63;;;;;;;5.11;100.00;98300.81;4916197;29;20269;-64
2023/03/03 01:03:20;;;;;;;37.08;21.42;;;;;;;5.77;100.00;98411.25;4916261;29;20277;-63
2023/03/03 01:05:46;;;;;;;36.15;21.20;;;;;;;5.86;100.00;98392.84;4923167;29;20201;-63
2023/03/03 01:08:13;;;;;;;39.03;19.67;;;;;;;5.71;100.00;98365.34;4935686;29;20186;-63
2023/03/03 01:10:51;;;;;;;38.88;19.38;;;;;;;5.79;100.00;98398.34;4935217;29;20213;-64
2023/03/03 01:13:18;;;;;;;33.95;18.02;;;;;;;5.89;100.00;98402.16;4935323;29;20196;-63
2023/03/03 01:15:44;;;;;;;39.70;20.70;;;;;;;5.60;100.00;98336.81;4934917;29;20690;-63
2023/03/03 01:18:11;;;;;;;35.45;20.15;;;;;;;5.87;100.00;98391.94;4973451;28;20272;-64
2023/03/03 01:20:36;;;;;;;39.28;19.55;;;;;;;5.62;100.00;98352.97;4954289;29;20323;-63
2023/03/03 01:23:02;;;;;;;31.40;18.20;;;;;;;5.46;100.00;98349.50;4954676;29;20264;-64
2023/03/03 01:25:28;;;;;;;35.33;18.65;;;;;;;5.24;100.00;98312.97;4953966;29;20223;-63
2023/03/03 01:27:53;;;;;;;36.83;18.58;;;;;;;5.74;100.00;98405.44;4953895;29;20185;-63
2023/03/03 01:30:19;;;;;;;38.53;19.63;;;;;;;5.32;100.00;98325.44;4953881;29;20185;-64
2023/03/03 01:32:44;;;;;;;35.45;18.55;;;;;;;5.76;100.00;98391.63;4952816;28;20228;-63
2023/03/03 01:35:10;;;;;;;30.35;18.27;;;;;;;5.70;100.00;98391.91;4954355;28;20181;-63
2023/03/03 01:37:36;;;;;;;36.15;18.27;;;;;;;5.65;100.00;98393.06;4953730;29;20217;-63
2023/03/03 01:40:03;;;;;;;35.45;18.73;;;;;;;5.61;100.00;98402.66;4953569;29;20201;-63
2023/03/03 01:42:31;;;;;;;34.13;17.98;;;;;;;5.46;100.00;98385.44;4953569;29;20193;-63
2023/03/03 01:45:15;;;;;;;38.75;19.25;;;;;;;5.61;100.00;98394.97;4953686;29;20194;-63
2023/03/03 01:47:46;;;;;;;35.63;19.40;;;;;;;5.52;100.00;98389.41;4953569;28;20170;-63
2023/03/03 01:50:17;;;;;;;43.75;20.65;;;;;;;5.18;100.00;98292.75;4953564;29;20652;-64
2023/03/03 01:52:45;;;;;;;36.25;18.65;;;;;;;5.84;100.00;98394.66;4953998;29;20571;-63
2023/03/03 01:55:22;;;;;;;36.65;20.85;;;;;;;5.54;100.00;98333.75;4953408;28;20205;-63
2023/03/03 01:57:55;;;;;;;37.42;20.05;;;;;;;5.47;100.00;98335.75;4970701;28;20333;-63
2023/03/03 02:00:20;;;;;;;41.78;20.50;;;;;;;5.70;100.00;98366.25;4994290;28;20653;-63
2023/03/03 02:02:47;;;;;;;35.75;19.17;;;;;;;5.91;100.00;98378.06;4994206;28;20184;-63
2023/03/03 02:05:14;;;;;;;34.70;18.85;;;;;;;5.64;100.00;98328.06;4994223;28;20190;-64
2023/03/03 02:07:40;;;;;;;31.10;17.88;;;;;;;5.86;100.00;98364.63;4994420;28;20176;-63
2023/03/03 02:10:11;;;;;;;33.95;16.90;;;;;;;6.04;100.00;98388.53;4994099;28;20179;-63
2023/03/03 02:12:42;;;;;;;32.08;17.98;;;;;;;5.83;100.00;98333.94;4994098;28;20160;-64
2023/03/03 02:15:37;;;;;;;37.92;17.92;;;;;;;6.04;100.00;98381.66;4994274;28;20191;-63
2023/03/03 02:18:10;;;;;;;35.55;17.75;;;;;;;5.73;100.00;98322.47;4986928;28;20187;-64
2023/03/03 02:20:56;;;;;;;26.02;17.50;;;;;;;6.07;100.00;98383.25;4993518;28;20628;-63
2023/03/03 02:23:46;;;;;;;29.35;15.75;;;;;;;6.05;100.00;98379.91;4994192;28;20226;-63
2023/03/03 02:26:15;;;;;;;30.35;15.88;;;;;;;5.67;100.00;98309.97;4994165;28;20522;-63
2023/03/03 02:28:41;;;;;;;30.95;15.65;;;;;;;5.99;100.00;98357.94;4993784;28;20194;-64
2023/03/03 02:31:14;;;;;;;35.90;15.85;;;;;;;5.70;100.00;98330.31;4994263;28;20175;-64
2023/03/03 02:33:45;;;;;;;24.52;14.55;;;;;;;6.00;100.00;98371.63;4993701;28;20176;-63
2023/03/03 02:36:16;;;;;;;26.63;15.32;;;;;;;6.07;100.00;98373.78;4993651;28;20183;-63
2023/03/03 02:38:48;;;;;;;28.60;13.93;;;;;;;6.00;100.00;98379.34;4993626;28;20172;-64
2023/03/03 02:41:29;;;;;;;29.13;15.15;;;;;;;6.03;100.00;98377.44;4993812;28;20195;-64
2023/03/03 02:44:05;;;;;;;27.80;14.73;;;;;;;6.04;100.00;98368.81;4993547;28;20547;-63
2023/03/03 02:46:39;;;;;;;32.28;16.35;;;;;;;5.93;100.00;98371.09;4993759;28;20238;-63
2023/03/03 02:49:07;;;;;;;32.15;16.55;;;;;;;5.97;100.00;98367.47;4993443;28;20171;-63
2023/03/03 02:51:34;;;;;;;29.80;16.60;;;;;;;6.05;100.00;98375.59;4993648;28;20234;-64
2023/03/03 02:54:03;;;;;;;28.42;15.48;;;;;;;5.75;100.00;98317.25;4971483;28;20582;-63
2023/03/03 02:56:28;;;;;;;31.35;15.82;;;;;;;6.10;100.00;98372.78;4972163;28;20188;-64
2023/03/03 02:58:54;;;;;;;35.10;16.23;;;;;;;6.07;100.00;98370.41;4971534;28;20270;-63
2023/03/03 03:01:20;;;;;;;28.08;15.50;;;;;;;5.53;100.00;98279.00;4971479;28;20785;-63
2023/03/03 03:03:45;;;;;;;34.97;16.52;;;;;;;5.63;100.00;98323.84;4971640;28;20211;-63
2023/03/03 03:06:11;;;;;;;30.48;15.35;;;;;;;5.60;100.00;98310.34;4971497;28;20734;-63
2023/03/03 03:08:37;;;;;;;28.23;13.73;;;;;;;5.63;100.00;98315.28;4971542;28;20620;-63
2023/03/03 03:11:04;;;;;;;26.75;14.20;;;;;;;5.68;100.00;98336.44;4971700;28;20180;-63
2023/03/03 03:13:31;;;;;;;33.20;16.48;;;;;;;5.46;100.00;98293.06;4971316;28;20193;-63
2023/03/03 03:15:56;;;;;;;27.27;15.40;;;;;;;5.58;100.00;98328.38;4971366;28;20344;-63
2023/03/03 03:18:22;;;;;;;27.60;13.23;;;;;;;5.34;100.00;98303.94;4971311;28;20594;-63
2023/03/03 03:20:47;;;;;;;31.23;14.10;;;;;;;5.49;100.00;98307.47;4972005;28;20251;-64
2023/03/03 03:23:13;;;;;;;25.45;13.70;;;;;;;5.55;100.00;98310.53;4971305;28;20184;-64
2023/03/03 03:25:44;;;;;;;34.20;14.82;;;;;;;5.59;100.00;98288.97;4988173;28;20199;-64
2023/03/03 03:28:11;;;;;;;24.70;14.50;;;;;;;5.67;100.00;98297.13;4993278;28;20172;-64
2023/03/03 03:30:36;;;;;;;25.15;14.38;;;;;;;5.66;100.00;98287.75;4992963;28;20646;-64
2023/03/03 03:33:02;;;;;;;26.50;13.55;;;;;;;5.88;100.00;98316.56;4992924;28;20176;-64
2023/03/03 03:35:27;;;;;;;22.48;12.48;;;;;;;5.90;100.00;98307.03;4993169;28;20175;-64
2023/03/03 03:37:53;;;;;;;20.70;13.27;;;;;;;6.19;100.00;98347.47;4993164;28;20669;-64
2023/03/03 03:40:18;;;;;;;23.45;13.50;;;;;;;5.85;100.00;98301.34;4992510;28;20287;-64
2023/03/03 03:42:44;;;;;;;27.00;14.60;;;;;;;5.72;100.00;98328.50;4992806;28;20234;-64
2023/03/03 03:45:14;;;;;;;24.17;13.15;;;;;;;5.21;100.00;98256.72;4993377;28;20589;-64
2023/03/03 03:47:40;;;;;;;21.40;13.85;;;;;;;5.50;100.00;98297.16;4993517;28;20179;-64
2023/03/03 03:50:06;;;;;;;25.98;14.02;;;;;;;5.44;100.00;98299.16;4993015;28;20180;-64
2023/03/03 03:52:31;;;;;;;31.00;14.77;;;;;;;5.77;100.00;98353.97;4993503;28;20255;-64
2023/03/03 03:54:56;;;;;;;28.98;12.90;;;;;;;5.41;100.00;98292.44;4952653;28;20224;-64
2023/03/03 03:57:22;;;;;;;27.25;14.15;;;;;;;5.44;100.00;98279.50;4956076;28;20190;-64
2023/03/03 03:59:49;;;;;;;30.10;13.65;;;;;;;5.79;100.00;98350.41;4955557;29;20280;-64
2023/03/03 04:02:14;;;;;;;30.00;13.30;;;;;;;5.38;100.00;98261.84;4955642;29;20346;-64
2023/03/03 04:04:40;;;;;;;27.00;11.73;;;;;;;5.88;100.00;98346.56;4936298;29;20313;-64
2023/03/03 04:07:05;;;;;;;29.20;14.02;;;;;;;5.90;100.00;98350.69;4936316;29;20192;-64
2023/03/03 04:09:31;;;;;;;19.67;12.57;;;;;;;5.96;100.00;98360.69;4936367;29;20193;-64
2023/03/03 04:11:56;;;;;;;23.98;12.63;;;;;;;5.69;100.00;98310.69;4936163;29;20201;-64
2023/03/03 04:14:21;;;;;;;23.67;11.82;;;;;;;6.07;100.00;98357.56;4936187;29;20277;-64
2023/03/03 04:16:47;;;;;;;27.67;12.15;;;;;;;5.92;100.00;98333.50;4936315;29;20197;-64
2023/03/03 04:19:12;;;;;;;26.40;11.82;;;;;;;5.76;100.00;98285.56;4936027;29;20225;-64
2023/03/03 04:21:38;;;;;;;23.38;12.18;;;;;;;5.83;100.00;98287.75;4935872;29;20297;-64
2023/03/03 04:24:04;;;;;;;23.50;13.23;;;;;;;5.87;100.00;98299.53;4936104;29;20691;-64
2023/03/03 04:26:30;;;;;;;23.48;12.65;;;;;;;5.97;100.00;98300.72;4935832;29;20194;-64
2023/03/03 04:28:56;;;;;;;20.90;12.52;;;;;;;6.01;100.00;98296.25;4935952;29;20302;-64
2023/03/03 04:31:24;;;;;;;22.02;12.27;;;;;;;6.11;100.00;98344.47;4935941;29;20707;-64
2023/03/03 04:33:50;;;;;;;25.27;12.35;;;;;;;5.89;100.00;98296.88;4935739;29;20645;-64
2023/03/03 04:36:15;;;;;;;22.55;11.95;;;;;;;6.03;100.00;98333.78;4979675;28;20194;-64
2023/03/03 04:38:41;;;;;;;22.27;11.73;;;;;;;5.60;100.00;98282.91;4993560;28;20179;-64
2023/03/03 04:41:06;;;;;;;24.63;11.95;;;;;;;5.64;100.00;98299.84;4993429;28;20224;-64
2023/03/03 04:43:32;;;;;;;19.52;12.45;;;;;;;5.66;100.00;98303.13;4993515;28;20304;-64
2023/03/03 04:45:57;;;;;;;19.88;12.05;;;;;;;5.95;100.00;98341.03;4993624;28;20682;-64
2023/03/03 04:48:22;;;;;;;19.30;11.32;;;;;;;5.90;100.00;98345.56;4993421;28;20610;-64
2023/03/03 04:50:48;;;;;;;16.73;10.13;;;;;;;5.63;100.00;98290.47;4993859;28;20637;-64
2023/03/03 04:53:13;;;;;;;17.80;10.80;;;;;;;5.73;100.00;98332.75;4993515;28;20188;-64
2023/03/03 04:55:38;;;;;;;18.98;10.30;;;;;;;5.90;100.00;98337.88;4993118;28;20195;-64
2023/03/03 04:58:04;;;;;;;21.02;10.27;;;;;;;5.67;100.00;98291.16;4994915;28;20218;-65
2023/03/03 05:00:30;;;;;;;17.98;10.40;;;;;;;5.57;100.00;98277.97;4995405;28;20286;-64
2023/03/03 05:02:55;;;;;;;21.17;10.27;;;;;;;5.88;100.00;98338.88;4995558;28;20612;-64
2023/03/03 05:05:23;;;;;;;15.68;10.48;;;;;;;5.63;100.00;98297.34;4995324;28;20549;-64
2023/03/03 05:07:51;;;;;;;20.58;11.15;;;;;;;5.78;100.00;98312.78;4995983;28;20271;-64
2023/03/03 05:10:17;;;;;;;17.55;10.85;;;;;;;6.03;100.00;98341.47;4995677;28;20176;-64
2023/03/03 05:12:43;;;;;;;21.50;11.50;;;;;;;5.89;100.00;98307.16;4995927;28;20184;-64
2023/03/03 05:15:09;;;;;;;19.15;10.32;;;;;;;6.20;100.00;98333.75;4995609;28;20176;-64
2023/03/03 05:17:35;;;;;;;19.88;11.10;;;;;;;6.23;100.00;98353.31;4973584;28;20281;-64
2023/03/03 05:20:00;;;;;;;17.48;11.02;;;;;;;6.22;100.00;98336.19;4973658;28;20193;-64
2023/03/03 05:22:26;;;;;;;20.60;11.35;;;;;;;6.24;100.00;98354.97;4973658;28;20197;-64
2023/03/03 05:24:52;;;;;;;25.58;13.52;;;;;;;5.91;100.00;98305.31;4973430;28;20676;-64
2023/03/03 05:27:18;;;;;;;22.70;13.98;;;;;;;6.17;100.00;98359.56;4973418;28;20204;-63
2023/03/03 05:29:43;;;;;;;23.13;13.23;;;;;;;6.03;100.00;98310.66;4954132;29;20197;-64
2023/03/03 05:32:09;;;;;;;24.65;13.70;;;;;;;6.44;100.00;98357.28;4954167;29;20264;-64
2023/03/03 05:34:34;;;;;;;22.02;12.45;;;;;;;6.54;100.00;98372.13;4954402;29;20193;-64
2023/03/03 05:36:59;;;;;;;28.15;13.82;;;;;;;6.38;100.00;98350.75;4953904;29;20185;-64
2023/03/03 05:39:25;;;;;;;20.42;13.45;;;;;;;6.25;100.00;98325.78;4954011;29;20268;-63
2023/03/03 05:41:50;;;;;;;26.60;14.45;;;;;;;6.43;100.00;98348.78;4953733;28;20641;-63
2023/03/03 05:44:16;;;;;;;24.60;13.35;;;;;;;6.47;100.00;98339.97;4953968;29;20195;-63
2023/03/03 05:46:41;;;;;;;22.92;13.07;;;;;;;6.19;100.00;98303.78;4954272;29;20208;-64
2023/03/03 05:49:07;;;;;;;25.17;14.60;;;;;;;6.55;100.00;98366.13;4967940;28;20252;-64
2023/03/03 05:51:33;;;;;;;26.58;13.60;;;;;;;6.50;100.00;98360.38;4972920;28;20726;-64
2023/03/03 05:53:58;;;;;;;25.58;14.32;;;;;;;6.21;100.00;98308.84;4973246;28;20255;-63
2023/03/03 05:56:23;;;;;;;30.23;14.52;;;;;;;6.50;100.00;98350.09;4973374;28;20192;-64
2023/03/03 05:58:49;;;;;;;22.30;14.40;;;;;;;6.20;100.00;98300.34;4972814;28;20199;-63
2023/03/03 06:01:14;;;;;;;31.60;14.82;;;;;;;6.65;100.00;98366.44;4986896;28;20621;-63
2023/03/03 06:03:42;;;;;;;23.55;14.48;;;;;;;6.50;100.00;98337.25;4992823;28;20192;-63
2023/03/03 06:06:08;;;;;;;27.85;15.63;;;;;;;6.50;100.00;98310.72;4992053;28;20180;-64
2023/03/03 06:08:33;;;;;;;26.17;15.15;;;;;;;6.63;100.00;98325.38;4992407;28;20270;-64
2023/03/03 06:10:59;;;;;;;34.95;18.50;;;;;;;6.91;100.00;98368.44;4991944;28;20211;-64
2023/03/03 06:13:25;;;;;;;37.53;19.95;;;;;;;6.45;100.00;98313.53;4953745;28;20636;-64
2023/03/03 06:15:50;;;;;;;36.30;18.55;;;;;;;6.58;100.00;98342.81;4953630;28;20332;-63
2023/03/03 06:18:16;;;;;;;29.92;17.35;;;;;;;6.65;100.00;98367.25;4952928;28;20193;-63
2023/03/03 06:20:41;;;;;;;30.63;17.98;;;;;;;6.75;100.00;98373.56;4952997;28;20201;-63
2023/03/03 06:23:06;;;;;;;29.30;18.13;;;;;;;6.79;100.00;98366.53;4953360;29;20195;-63
2023/03/03 06:25:34;;;;;;;35.05;18.48;;;;;;;6.42;100.00;98318.81;4953172;29;20321;-63
2023/03/03 06:28:00;;;;;;;33.00;19.65;;;;;;;6.59;100.00;98343.66;4952878;29;20193;-63
2023/03/03 06:30:27;;;;;;;29.27;16.50;;;;;;;6.12;100.00;98287.06;4953334;29;20193;-64
2023/03/03 06:32:53;;;;;;;28.33;17.27;;;;;;;6.41;100.00;98336.91;4952869;29;20248;-64
2023/03/03 06:35:18;;;;;;;28.52;17.50;;;;;;;6.65;100.00;98377.53;4953079;28;20185;-64
2023/03/03 06:37:43;;;;;;;40.13;23.42;;;;;;;6.58;100.00;98358.22;4952993;28;20228;-64
2023/03/03 06:40:09;;;;;;;49.65;28.35;;;;;;;6.86;100.00;98386.69;4952852;29;20217;-65
2023/03/03 06:42:35;;;;;;;47.70;28.38;;;;;;;6.60;100.00;98335.00;4952670;29;20189;-64
2023/03/03 06:45:00;;;;;;;47.50;28.90;;;;;;;6.86;100.00;98378.97;4983847;28;20191;-64
2023/03/03 06:47:26;;;;;;;54.45;31.50;;;;;;;6.45;100.00;98297.28;4993599;28;20180;-64
2023/03/03 06:49:51;;;;;;;45.60;27.05;;;;;;;7.08;100.00;98386.34;4993567;28;20637;-64
2023/03/03 06:52:21;;;;;;;47.45;28.83;;;;;;;7.11;100.00;98373.31;4998329;28;20267;-64
2023/03/03 06:54:47;;;;;;;41.38;25.13;;;;;;;6.68;100.00;98341.41;5012823;28;20661;-64
2023/03/03 06:57:19;;;;;;;49.95;26.70;;;;;;;6.91;100.00;98395.00;4991457;28;20246;-64
2023/03/03 06:59:48;;;;;;;51.60;26.95;;;;;;;6.80;100.00;98381.88;4991334;28;20705;-64
2023/03/03 07:02:16;;;;;;;44.70;27.60;;;;;;;6.86;100.00;98388.41;4971540;28;20667;-64
2023/03/03 07:04:41;;;;;;;39.67;22.48;;;;;;;6.61;100.00;98332.38;4970835;28;20192;-64
2023/03/03 07:07:21;;;;;;;38.97;23.33;;;;;;;6.95;100.00;98391.34;4971767;28;20185;-64
2023/03/03 07:09:55;;;;;;;48.53;27.80;;;;;;;6.95;100.00;98375.06;4971622;28;20247;-64
2023/03/03 07:12:29;;;;;;;42.65;23.33;;;;;;;7.00;100.00;98391.91;4972022;28;20204;-64
2023/03/03 07:15:13;;;;;;;36.67;21.80;;;;;;;6.78;100.00;98340.00;4971434;28;20181;-64
2023/03/03 07:17:44;;;;;;;34.08;23.38;;;;;;;7.02;100.00;98382.38;4971919;28;20559;-64
2023/03/03 07:20:42;;;;;;;37.60;22.73;;;;;;;7.16;100.00;98400.44;4971799;28;20603;-64
2023/03/03 07:23:22;;;;;;;40.30;22.45;;;;;;;7.10;100.00;98400.78;4933662;29;20595;-64
2023/03/03 07:25:47;;;;;;;36.67;22.15;;;;;;;6.86;100.00;98344.69;4932845;29;20204;-64
2023/03/03 07:28:31;;;;;;;36.38;23.23;;;;;;;6.86;100.00;98355.00;4942664;29;20193;-64
2023/03/03 07:30:57;;;;;;;35.53;21.73;;;;;;;6.93;100.00;98387.19;4931994;29;20616;-64
2023/03/03 07:33:32;;;;;;;36.72;21.38;;;;;;;7.02;100.00;98392.66;4932901;29;20196;-64
2023/03/03 07:35:59;;;;;;;39.15;22.60;;;;;;;6.94;100.00;98381.94;4933639;29;20190;-64
2023/03/03 07:38:30;;;;;;;33.17;21.70;;;;;;;6.99;100.00;98392.00;4932838;29;20200;-64
2023/03/03 07:41:01;;;;;;;37.90;23.05;;;;;;;6.93;100.00;98384.63;4932527;29;20307;-64
2023/03/03 07:43:42;;;;;;;36.80;21.13;;;;;;;6.95;100.00;98396.50;4932746;29;20185;-64
2023/03/03 07:46:10;;;;;;;36.88;21.50;;;;;;;6.97;100.00;98391.25;4933217;29;20245;-64
2023/03/03 07:48:39;;;;;;;32.00;20.42;;;;;;;6.92;100.00;98388.09;4932736;29;20204;-64
2023/03/03 07:51:21;;;;;;;31.40;19.80;;;;;;;6.85;100.00;98400.47;4932802;29;20205;-64
2023/03/03 07:53:46;;;;;;;25.77;16.48;;;;;;;6.49;100.00;98369.00;4933036;29;20174;-64
2023/03/03 07:56:34;;;;;;;30.13;18.27;;;;;;;6.23;100.00;98318.16;4932977;29;20605;-64
2023/03/03 07:59:06;;;;;;;26.77;16.33;;;;;;;6.70;100.00;98385.84;4956218;28;20710;-64
2023/03/03 08:01:41;;;;;;;25.90;18.50;;;;;;;6.86;100.00;98375.56;4984529;28;20269;-64
2023/03/03 08:04:17;;;;;;;30.92;18.67;;;;;;;6.66;100.00;98322.66;5012725;28;20166;-64
2023/03/03 08:06:49;;;;;;;30.83;17.23;;;;;;;7.13;100.00;98380.03;4990380;28;20660;-64
2023/03/03 08:09:28;;;;;;;32.55;17.85;;;;;;;6.94;100.00;98371.66;4990310;28;20198;-64
2023/03/03 08:12:10;;;;;;;31.25;19.92;;;;;;;7.03;100.00;98368.59;4990653;28;20188;-64
2023/03/03 08:14:37;;;;;;;35.08;21.25;;;;;;;6.75;100.00;98314.44;4990462;28;20184;-64
2023/03/03 08:17:30;;;;;;;34.58;20.70;;;;;;;7.05;100.00;98361.63;4990510;28;20195;-64
2023/03/03 08:19:55;;;;;;;35.70;21.08;;;;;;;7.04;100.00;98365.09;4990829;28;20188;-64
2023/03/03 08:22:29;;;;;;;30.08;20.10;;;;;;;7.10;100.00;98361.38;4990365;28;20187;-64
2023/03/03 08:24:54;;;;;;;34.00;20.15;;;;;;;7.08;100.00;98346.03;4990809;28;20184;-64
2023/03/03 08:27:22;;;;;;;31.73;19.33;;;;;;;6.83;100.00;98289.13;4990351;28;20575;-64
2023/03/03 08:29:48;;;;;;;33.20;19.02;;;;;;;6.93;100.00;98299.75;4990467;28;20234;-64
2023/03/03 08:32:14;;;;;;;31.10;19.20;;;;;;;7.11;100.00;98311.59;4989915;28;20299;-64
2023/03/03 08:34:39;;;;;;;32.05;19.10;;;;;;;7.04;100.00;98343.72;4990454;28;20184;-65
2023/03/03 08:37:05;;;;;;;31.25;20.05;;;;;;;7.09;100.00;98337.38;4995603;28;20242;-65
2023/03/03 08:39:30;;;;;;;35.08;21.85;;;;;;;7.18;100.00;98316.28;5012315;28;20179;-65
2023/03/03 08:41:56;;;;;;;33.03;21.27;;;;;;;7.37;100.00;98332.34;5014340;28;20191;-64
2023/03/03 08:44:22;;;;;;;36.72;22.25;;;;;;;7.43;100.00;98341.47;5015479;28;20183;-65
2023/03/03 08:46:47;;;;;;;36.78;22.13;;;;;;;7.42;100.00;98345.78;5013204;28;20187;-62
2023/03/03 08:49:12;;;;;;;59.30;38.17;;;;;;;7.11;100.00;98342.47;5013296;28;20190;-63
2023/03/03 08:51:38;;;;;;;35.90;23.33;;;;;;;6.86;100.00;98296.69;4954736;29;20359;-63
2023/03/03 08:54:03;;;;;;;40.88;24.98;;;;;;;7.00;100.00;98331.94;4954645;29;20757;-63
2023/03/03 08:56:29;;;;;;;34.28;20.73;;;;;;;6.78;100.00;98290.31;4954800;29;20722;-63
2023/03/03 08:58:54;;;;;;;32.95;21.67;;;;;;;7.10;100.00;98354.47;4954857;29;20231;-64
2023/03/03 09:01:20;;;;;;;35.53;22.40;;;;;;;7.05;100.00;98342.78;4954549;29;20726;-64
2023/03/03 09:03:45;;;;;;;35.88;22.33;;;;;;;7.06;100.00;98341.88;4954436;29;20305;-65
2023/03/03 09:06:10;;;;;;;31.10;21.58;;;;;;;6.74;100.00;98296.53;4954399;29;20189;-65
2023/03/03 09:08:37;;;;;;;30.10;20.80;;;;;;;6.44;100.00;98257.06;4954415;29;20189;-65
2023/03/03 09:11:08;;;;;;;35.42;21.98;;;;;;;6.97;100.00;98337.22;4916591;29;20569;-65
2023/03/03 09:13:34;;;;;;;44.72;25.67;;;;;;;7.06;100.00;98347.03;4916431;29;20763;-64
2023/03/03 09:15:59;;;;;;;39.00;26.55;;;;;;;6.84;100.00;98331.09;4916311;29;20266;-64
2023/03/03 09:18:34;;;;;;;35.67;25.27;;;;;;;6.60;100.00;98337.59;4915707;29;20190;-65
2023/03/03 09:20:59;;;;;;;30.15;21.75;;;;;;;6.62;100.00;98339.16;4916473;29;20218;-64
2023/03/03 09:23:34;;;;;;;27.33;17.02;;;;;;;6.73;100.00;98339.41;4964444;28;20195;-64
2023/03/03 09:26:26;;;;;;;26.30;17.05;;;;;;;6.79;100.00;98336.50;4973564;28;20537;-65
2023/03/03 09:29:27;;;;;;;22.27;14.63;;;;;;;6.65;100.00;98320.19;4915998;29;20681;-64
2023/03/03 09:31:59;;;;;;;22.23;14.88;;;;;;;6.49;100.00;98273.91;4915583;29;20187;-65
2023/03/03 09:34:39;;;;;;;24.42;16.73;;;;;;;6.70;100.00;98292.47;4915910;29;20298;-62
2023/03/03 09:37:31;;;;;;;34.55;19.98;;;;;;;6.54;100.00;98271.09;4916145;29;20221;-62
2023/03/03 09:39:57;;;;;;;36.53;26.50;;;;;;;6.72;100.00;98306.91;4914404;29;20304;-62
2023/03/03 09:42:28;;;;;;;29.75;16.83;;;;;;;6.79;100.00;98327.97;4927912;29;20281;-62
2023/03/03 09:44:59;;;;;;;26.63;16.63;;;;;;;6.90;100.00;98329.03;4934589;29;20190;-62
2023/03/03 09:47:57;;;;;;;30.23;17.92;;;;;;;7.13;100.00;98333.75;4934403;29;20791;-62
2023/03/03 09:50:38;;;;;;;50.58;32.65;;;;;;;6.65;100.00;98267.00;4935046;29;20189;-63
2023/03/03 09:53:22;;;;;;;34.65;23.00;;;;;;;7.22;100.00;98325.50;4934024;29;20290;-63
2023/03/03 09:55:53;;;;;;;42.78;28.67;;;;;;;6.81;100.00;98275.53;4934804;29;20201;-63
2023/03/03 09:58:44;;;;;;;35.67;23.20;;;;;;;7.25;100.00;98322.75;4934249;29;20307;-63
2023/03/03 10:01:27;;;;;;;27.25;16.42;;;;;;;7.29;100.00;98326.78;4934720;29;20209;-63
2023/03/03 10:04:05;;;;;;;23.35;15.35;;;;;;;7.20;100.00;98335.03;4934513;29;20221;-63
2023/03/03 10:06:43;;;;;;;20.40;13.77;;;;;;;7.06;100.00;98326.44;5003185;28;20210;-64
2023/03/03 10:09:27;;;;;;;24.20;15.85;;;;;;;6.68;100.00;98331.13;5034032;28;20245;-64
2023/03/03 10:12:07;;;;;;;24.20;14.50;;;;;;;6.80;100.00;98332.19;5033793;28;20174;-64
2023/03/03 10:15:14;;;;;;;25.38;15.15;;;;;;;6.62;100.00;98312.63;5033492;28;20225;-64
2023/03/03 10:17:51;;;;;;;27.33;17.20;;;;;;;6.52;100.00;98266.03;4914887;29;20205;-64
2023/03/03 10:20:22;;;;;;;30.08;21.80;;;;;;;7.04;100.00;98308.50;4914767;29;20340;-65
2023/03/03 10:22:56;;;;;;;46.38;28.60;;;;;;;6.96;100.00;98315.84;4915158;29;20212;-64
2023/03/03 10:25:30;;;;;;;37.70;25.05;;;;;;;7.14;100.00;98303.69;4914894;29;20671;-62
2023/03/03 10:28:17;;;;;;;26.92;16.65;;;;;;;7.34;100.00;98309.34;4915564;29;20200;-63
2023/03/03 10:31:05;;;;;;;25.67;15.38;;;;;;;7.40;100.00;98300.47;4914868;29;20253;-63
2023/03/03 10:33:36;;;;;;;27.75;17.63;;;;;;;7.58;100.00;98299.41;4914618;29;20298;-63
2023/03/03 10:36:13;;;;;;;30.42;19.45;;;;;;;7.64;100.00;98301.63;4914701;29;20183;-63
2023/03/03 10:38:59;;;;;;;34.42;20.63;;;;;;;7.81;100.00;98301.47;4914803;29;20197;-63
2023/03/03 10:41:34;;;;;;;31.42;17.33;;;;;;;7.90;100.00;98286.28;4896243;29;20274;-63
2023/03/03 10:44:32;;;;;;;23.45;15.95;;;;;;;8.11;100.00;98289.31;4895999;29;20197;-63
2023/03/03 10:47:07;;;;;;;28.30;17.25;;;;;;;8.18;100.00;98290.59;4894661;29;20192;-64
2023/03/03 10:50:02;;;;;;;27.80;16.98;;;;;;;8.26;100.00;98273.78;4911743;29;20197;-64
2023/03/03 10:52:50;;;;;;;21.90;15.60;;;;;;;8.42;100.00;98289.13;4928158;28;20657;-65
2023/03/03 10:55:25;;;;;;;26.20;16.00;;;;;;;8.55;100.00;98277.94;4988853;28;20302;-64
2023/03/03 10:58:01;;;;;;;30.15;17.15;;;;;;;8.55;100.00;98280.53;4991466;28;20314;-63
2023/03/03 11:00:34;;;;;;;25.45;17.13;;;;;;;7.80;100.00;98171.84;4991394;28;20204;-64
2023/03/03 11:03:36;;;;;;;32.08;19.95;;;;;;;8.28;100.00;98261.59;4991454;28;20168;-64
2023/03/03 11:06:52;;;;;;;27.42;16.83;;;;;;;8.32;100.00;98267.44;4990889;28;20183;-63
2023/03/03 11:09:59;;;;;;;25.30;17.48;;;;;;;8.13;100.00;98202.44;4914872;29;20190;-63
2023/03/03 11:12:36;;;;;;;31.25;18.75;;;;;;;8.30;100.00;98253.78;4876854;29;20773;-64
2023/03/03 11:15:17;;;;;;;29.42;15.52;;;;;;;8.37;100.00;98253.31;4876894;29;20203;-64
2023/03/03 11:17:57;;;;;;;19.90;13.90;;;;;;;8.40;100.00;98255.69;4876836;29;20191;-63
2023/03/03 11:21:02;;;;;;;37.15;22.85;;;;;;;8.42;100.00;98248.72;4876420;29;20753;-63
2023/03/03 11:23:36;;;;;;;25.48;16.95;;;;;;;8.10;100.00;98195.72;4839423;29;20196;-64
2023/03/03 11:26:14;;;;;;;75.28;30.77;;;;;;;8.36;100.00;98238.78;4839373;29;20310;-64
2023/03/03 11:28:59;;;;;;;35.58;18.80;;;;;;;8.46;100.00;98239.84;4839257;29;20188;-64
2023/03/03 11:31:46;;;;;;;29.15;17.35;;;;;;;8.33;100.00;98178.88;4840351;29;20859;-64
2023/03/03 11:34:35;;;;;;;22.38;13.57;;;;;;;8.75;100.00;98241.41;4839405;29;20724;-64